Time;durP1;ratioP1;P1;durP2;ratioP2;P2;SDS_P1;SDS_P2;PMS_P1;PMS_P2;Temp;Humidity;BMP_temperature;BMP_pressure;BME280_temperature;BME280_humidity;BME280_pressure;Samples;Min_cycle;Max_cycle;Signal;HPM_P1;HPM_P2
2022/05/05 00:02:23;;;;;;;2.50;2.50;;;;;;;;;;5053372;28;20414;-76
2022/05/05 00:04:49;;;;;;;2.87;2.87;;;;;;;;;;5052792;28;20464;-77
2022/05/05 00:07:15;;;;;;;4.40;2.70;;;;;;;;;;5052963;28;20489;-76
2022/05/05 00:09:41;;;;;;;2.83;2.73;;;;;;;;;;5053049;28;20965;-76
2022/05/05 00:14:52;;;;;;;2.63;2.63;;;;;;;;;;5053124;28;20440;-77
2022/05/05 00:17:18;;;;;;;2.10;2.10;;;;;;;;;;5052779;28;20418;-77
2022/05/05 00:19:44;;;;;;;2.53;2.53;;;;;;;;;;5052676;28;20414;-75
2022/05/05 00:22:11;;;;;;;2.93;2.83;;;;;;;;;;5052808;28;20410;-76
2022/05/05 00:24:38;;;;;;;3.00;2.80;;;;;;;;;;5055333;28;20480;-75
2022/05/05 00:27:04;;;;;;;2.77;2.67;;;;;;;;;;5056674;28;20426;-77
2022/05/05 00:29:31;;;;;;;2.67;2.57;;;;;;;;;;5056401;28;20845;-75
2022/05/05 00:31:56;;;;;;;2.80;2.70;;;;;;;;;;5056281;28;20402;-77
2022/05/05 00:34:23;;;;;;;3.67;3.37;;;;;;;;;;5056817;28;20403;-75
2022/05/05 00:36:49;;;;;;;3.43;3.13;;;;;;;;;;5056523;28;20405;-74
2022/05/05 00:39:15;;;;;;;3.07;3.07;;;;;;;;;;5056237;28;20830;-74
2022/05/05 00:41:45;;;;;;;3.27;3.23;;;;;;;;;;5056417;28;20456;-75
2022/05/05 00:44:11;;;;;;;2.60;2.60;;;;;;;;;;5056010;28;20414;-74
2022/05/05 00:46:38;;;;;;;2.60;2.50;;;;;;;;;;5056082;28;20430;-77
2022/05/05 00:49:04;;;;;;;2.50;2.40;;;;;;;;;;5055895;28;20458;-77
2022/05/05 00:51:30;;;;;;;3.20;3.10;;;;;;;;;;5055901;28;20474;-76
2022/05/05 00:53:57;;;;;;;2.80;2.60;;;;;;;;;;5055892;28;20894;-76
2022/05/05 00:56:23;;;;;;;3.37;3.07;;;;;;;;;;5056669;28;20458;-77
2022/05/05 00:58:49;;;;;;;4.30;3.10;;;;;;;;;;5055806;28;20502;-75
2022/05/05 01:01:18;;;;;;;5.40;3.20;;;;;;;;;;5055809;28;20914;-76
2022/05/05 01:03:45;;;;;;;3.10;3.10;;;;;;;;;;5055567;28;20423;-77
2022/05/05 01:06:13;;;;;;;2.63;2.63;;;;;;;;;;5055860;28;20450;-74
2022/05/05 01:08:39;;;;;;;2.63;2.63;;;;;;;;;;5056088;28;20545;-74
2022/05/05 01:11:05;;;;;;;3.73;3.43;;;;;;;;;;5055851;28;20417;-74
2022/05/05 01:13:31;;;;;;;4.00;3.90;;;;;;;;;;5055407;28;20422;-75
2022/05/05 01:15:59;;;;;;;3.57;3.23;;;;;;;;;;5055729;28;20433;-76
2022/05/05 01:18:25;;;;;;;4.73;3.53;;;;;;;;;;5055716;28;20425;-76
2022/05/05 01:20:52;;;;;;;3.30;3.20;;;;;;;;;;5055455;28;20428;-74
2022/05/05 01:23:19;;;;;;;3.50;3.40;;;;;;;;;;5055312;28;20417;-77
2022/05/05 01:28:34;;;;;;;3.43;3.23;;;;;;;;;;5055070;28;20500;-76
2022/05/05 01:31:02;;;;;;;3.70;3.50;;;;;;;;;;5055327;28;20405;-76
2022/05/05 01:33:30;;;;;;;2.97;2.87;;;;;;;;;;5055420;28;20468;-74
2022/05/05 01:35:57;;;;;;;3.33;3.20;;;;;;;;;;5055245;28;20414;-76
2022/05/05 01:38:24;;;;;;;3.47;3.37;;;;;;;;;;5055509;28;20409;-74
2022/05/05 01:40:50;;;;;;;3.47;3.37;;;;;;;;;;5055009;28;20775;-75
2022/05/05 01:43:17;;;;;;;3.43;3.17;;;;;;;;;;5054875;28;20909;-77
2022/05/05 01:45:44;;;;;;;3.87;3.67;;;;;;;;;;5055159;28;20774;-77
2022/05/05 01:48:10;;;;;;;6.70;3.50;;;;;;;;;;5054719;28;20883;-74
2022/05/05 01:50:36;;;;;;;3.30;3.00;;;;;;;;;;5054678;28;20477;-75
2022/05/05 01:53:02;;;;;;;4.37;2.60;;;;;;;;;;5053399;28;20426;-76
2022/05/05 01:55:30;;;;;;;3.20;3.10;;;;;;;;;;5053558;28;20427;-76
2022/05/05 01:57:56;;;;;;;2.90;2.80;;;;;;;;;;5054560;28;20975;-77
2022/05/05 02:00:22;;;;;;;3.07;2.80;;;;;;;;;;5054903;28;20421;-77
2022/05/05 02:02:48;;;;;;;3.40;3.30;;;;;;;;;;5055096;28;20856;-76
2022/05/05 02:05:14;;;;;;;3.50;3.40;;;;;;;;;;5054686;28;20423;-76
2022/05/05 02:07:43;;;;;;;3.30;3.20;;;;;;;;;;5054735;28;20421;-76
2022/05/05 02:10:10;;;;;;;3.33;3.23;;;;;;;;;;5054789;28;20470;-76
2022/05/05 02:12:36;;;;;;;7.73;3.60;;;;;;;;;;5054626;28;20426;-73
2022/05/05 02:15:06;;;;;;;3.20;3.20;;;;;;;;;;5054372;28;20422;-77
2022/05/05 02:17:32;;;;;;;3.73;3.53;;;;;;;;;;5054901;28;20465;-74
2022/05/05 02:20:00;;;;;;;3.77;3.57;;;;;;;;;;5054504;28;20411;-75
2022/05/05 02:22:26;;;;;;;3.13;3.13;;;;;;;;;;5054458;28;20792;-76
2022/05/05 02:24:52;;;;;;;7.33;3.97;;;;;;;;;;5054136;28;20891;-75
2022/05/05 02:27:18;;;;;;;4.07;3.87;;;;;;;;;;5054068;28;20523;-76
2022/05/05 02:29:45;;;;;;;3.83;3.73;;;;;;;;;;5054450;28;20793;-76
2022/05/05 02:32:11;;;;;;;4.57;4.33;;;;;;;;;;5054247;28;20441;-77
2022/05/05 02:34:37;;;;;;;3.10;2.97;;;;;;;;;;5054269;28;20898;-76
2022/05/05 02:39:48;;;;;;;3.90;3.10;;;;;;;;;;5053909;28;20417;-77
2022/05/05 02:42:14;;;;;;;3.90;2.60;;;;;;;;;;5054316;28;20898;-76
2022/05/05 02:44:40;;;;;;;2.50;2.40;;;;;;;;;;5054063;28;20896;-74
2022/05/05 02:47:06;;;;;;;3.03;2.83;;;;;;;;;;5053603;28;20426;-77
2022/05/05 02:49:32;;;;;;;2.90;2.90;;;;;;;;;;5053951;28;20849;-77
2022/05/05 02:51:58;;;;;;;3.60;3.50;;;;;;;;;;5053942;28;20417;-76
2022/05/05 02:57:09;;;;;;;3.10;3.00;;;;;;;;;;5054037;28;20390;-75
2022/05/05 02:59:34;;;;;;;3.30;3.20;;;;;;;;;;5053862;28;20426;-75
2022/05/05 03:02:00;;;;;;;2.80;2.70;;;;;;;;;;5053451;28;20407;-75
2022/05/05 03:04:26;;;;;;;3.17;3.17;;;;;;;;;;5053753;28;20414;-76
2022/05/05 03:06:52;;;;;;;4.13;4.03;;;;;;;;;;5053674;28;20894;-75
2022/05/05 03:09:19;;;;;;;3.00;2.90;;;;;;;;;;5053240;28;20485;-77
2022/05/05 03:11:45;;;;;;;3.33;3.10;;;;;;;;;;5053233;28;20612;-74
2022/05/05 03:14:11;;;;;;;3.20;3.10;;;;;;;;;;5053614;28;20445;-74
2022/05/05 03:16:37;;;;;;;2.90;2.80;;;;;;;;;;5053793;28;20407;-74
2022/05/05 03:19:03;;;;;;;3.30;3.20;;;;;;;;;;5053285;28;20421;-74
2022/05/05 03:21:29;;;;;;;2.50;2.50;;;;;;;;;;5053169;28;20415;-76
2022/05/05 03:23:55;;;;;;;3.30;3.20;;;;;;;;;;5053452;28;20445;-76
2022/05/05 03:26:21;;;;;;;3.03;3.03;;;;;;;;;;5053382;28;20866;-75
2022/05/05 03:28:47;;;;;;;3.63;3.53;;;;;;;;;;5053117;28;20466;-75
2022/05/05 03:31:13;;;;;;;3.57;3.40;;;;;;;;;;5054104;28;20434;-77
2022/05/05 03:33:39;;;;;;;3.37;3.27;;;;;;;;;;5053675;28;20427;-76
2022/05/05 03:36:05;;;;;;;3.80;3.70;;;;;;;;;;5052965;28;20917;-77
2022/05/05 03:38:31;;;;;;;3.00;3.00;;;;;;;;;;5053240;28;20492;-76
2022/05/05 03:40:57;;;;;;;3.67;3.67;;;;;;;;;;5053352;28;20465;-76
2022/05/05 03:43:23;;;;;;;4.63;3.40;;;;;;;;;;5053199;28;20498;-77
2022/05/05 03:45:49;;;;;;;3.67;3.47;;;;;;;;;;5053135;28;20766;-76
2022/05/05 03:48:15;;;;;;;3.50;3.37;;;;;;;;;;5051644;28;20437;-76
2022/05/05 03:50:41;;;;;;;2.90;2.80;;;;;;;;;;5052813;28;20474;-75
2022/05/05 03:53:07;;;;;;;3.17;3.07;;;;;;;;;;5052773;28;20446;-76
2022/05/05 03:55:33;;;;;;;3.20;3.10;;;;;;;;;;5052827;28;20426;-75
2022/05/05 03:57:59;;;;;;;4.30;3.47;;;;;;;;;;5052994;28;20430;-76
2022/05/05 04:00:25;;;;;;;2.80;2.70;;;;;;;;;;5057014;28;20418;-75
2022/05/05 04:05:36;;;;;;;3.40;3.30;;;;;;;;;;5057313;28;20486;-76
2022/05/05 04:08:03;;;;;;;3.27;3.07;;;;;;;;;;5056629;28;20419;-77
2022/05/05 04:10:29;;;;;;;3.50;3.27;;;;;;;;;;5056967;28;20406;-76
2022/05/05 04:12:55;;;;;;;3.30;3.10;;;;;;;;;;5056681;28;20422;-74
2022/05/05 04:15:21;;;;;;;3.13;3.03;;;;;;;;;;5056628;28;20418;-74
2022/05/05 04:17:47;;;;;;;3.70;3.50;;;;;;;;;;5056514;28;20471;-75
2022/05/05 04:20:13;;;;;;;3.40;3.30;;;;;;;;;;5057075;28;20504;-75
2022/05/05 04:22:39;;;;;;;3.10;2.90;;;;;;;;;;5056154;28;20414;-75
2022/05/05 04:25:06;;;;;;;6.83;3.57;;;;;;;;;;5056629;28;20423;-75
2022/05/05 04:27:32;;;;;;;3.17;3.07;;;;;;;;;;5056791;28;20537;-76
2022/05/05 04:29:58;;;;;;;2.63;2.43;;;;;;;;;;5056255;28;20476;-74
2022/05/05 04:32:24;;;;;;;3.00;2.90;;;;;;;;;;5057103;28;20418;-77
2022/05/05 04:34:50;;;;;;;3.53;3.23;;;;;;;;;;5056436;28;20422;-76
2022/05/05 04:37:16;;;;;;;3.80;3.50;;;;;;;;;;5056438;28;20462;-77
2022/05/05 04:39:42;;;;;;;3.77;3.33;;;;;;;;;;5056365;28;20508;-77
2022/05/05 04:42:10;;;;;;;3.00;2.90;;;;;;;;;;5056287;28;20515;-77
2022/05/05 04:44:36;;;;;;;3.40;3.30;;;;;;;;;;5056044;28;20790;-76
2022/05/05 04:47:02;;;;;;;15.23;3.30;;;;;;;;;;5056586;28;20889;-76
2022/05/05 04:49:28;;;;;;;2.73;2.73;;;;;;;;;;5055730;28;20469;-76
2022/05/05 04:51:54;;;;;;;3.10;3.10;;;;;;;;;;5056014;28;20521;-76
2022/05/05 04:54:21;;;;;;;3.13;3.03;;;;;;;;;;5055901;28;20458;-75
2022/05/05 04:56:46;;;;;;;2.90;2.80;;;;;;;;;;5054812;28;20429;-77
2022/05/05 04:59:12;;;;;;;3.00;2.90;;;;;;;;;;5056061;28;20426;-74
2022/05/05 05:01:39;;;;;;;3.00;2.70;;;;;;;;;;5054595;28;20418;-77
2022/05/05 05:04:06;;;;;;;3.80;3.60;;;;;;;;;;5055989;28;20422;-75
2022/05/05 05:06:32;;;;;;;3.90;3.70;;;;;;;;;;5055695;28;20886;-77
2022/05/05 05:08:59;;;;;;;3.83;3.70;;;;;;;;;;5055224;28;20964;-76
2022/05/05 05:11:25;;;;;;;3.20;3.10;;;;;;;;;;5055905;28;20431;-76
2022/05/05 05:13:51;;;;;;;5.73;3.57;;;;;;;;;;5055496;28;20627;-74
2022/05/05 05:16:17;;;;;;;7.53;3.30;;;;;;;;;;5054170;28;20526;-75
2022/05/05 05:18:43;;;;;;;3.70;3.50;;;;;;;;;;5055654;28;20411;-77
2022/05/05 05:21:09;;;;;;;3.90;3.80;;;;;;;;;;5055381;28;20489;-76
2022/05/05 05:23:35;;;;;;;4.30;4.10;;;;;;;;;;5055175;28;20813;-75
2022/05/05 05:26:01;;;;;;;3.90;3.80;;;;;;;;;;5055130;28;20426;-77
2022/05/05 05:28:27;;;;;;;4.43;4.20;;;;;;;;;;5055056;28;21044;-75
2022/05/05 05:30:53;;;;;;;8.63;5.40;;;;;;;;;;5055525;28;20422;-76
2022/05/05 05:33:19;;;;;;;4.43;4.20;;;;;;;;;;5055635;28;20823;-75
2022/05/05 05:35:46;;;;;;;4.37;4.07;;;;;;;;;;5055259;28;20426;-77
2022/05/05 05:38:12;;;;;;;3.73;3.63;;;;;;;;;;5055805;28;20878;-77
2022/05/05 05:40:38;;;;;;;5.50;4.00;;;;;;;;;;5053744;28;20453;-76
2022/05/05 05:43:04;;;;;;;4.00;3.77;;;;;;;;;;5055004;28;20446;-77
2022/05/05 05:45:31;;;;;;;4.30;4.10;;;;;;;;;;5055400;28;20794;-77
2022/05/05 05:47:57;;;;;;;4.60;4.40;;;;;;;;;;5055050;28;20415;-77
2022/05/05 05:50:23;;;;;;;3.73;3.63;;;;;;;;;;5054533;28;20486;-77
2022/05/05 05:52:49;;;;;;;3.90;3.80;;;;;;;;;;5054684;28;20410;-77
2022/05/05 05:55:15;;;;;;;3.17;3.07;;;;;;;;;;5054776;28;20449;-77
2022/05/05 05:57:41;;;;;;;3.70;3.60;;;;;;;;;;5054618;28;20501;-75
2022/05/05 06:00:07;;;;;;;13.37;6.20;;;;;;;;;;5054895;28;20465;-76
2022/05/05 06:05:18;;;;;;;3.80;3.70;;;;;;;;;;5055202;28;20894;-74
2022/05/05 06:07:44;;;;;;;5.20;4.90;;;;;;;;;;5054504;28;20508;-73
2022/05/05 06:10:10;;;;;;;5.30;4.97;;;;;;;;;;5054549;28;20564;-74
2022/05/05 06:12:36;;;;;;;4.77;4.47;;;;;;;;;;5054426;28;20940;-74
2022/05/05 06:15:03;;;;;;;4.63;4.43;;;;;;;;;;5054376;28;20415;-77
2022/05/05 06:17:30;;;;;;;4.73;4.50;;;;;;;;;;5052911;28;20424;-73
2022/05/05 06:19:56;;;;;;;4.27;4.17;;;;;;;;;;5054131;28;20513;-75
2022/05/05 06:22:22;;;;;;;8.00;5.23;;;;;;;;;;5053497;28;20450;-76
2022/05/05 06:24:48;;;;;;;4.97;4.77;;;;;;;;;;5054092;28;20468;-77
2022/05/05 06:27:14;;;;;;;5.20;4.83;;;;;;;;;;5054304;28;20505;-75
2022/05/05 06:29:40;;;;;;;4.50;4.30;;;;;;;;;;5054378;28;20476;-74
2022/05/05 06:32:06;;;;;;;4.53;4.43;;;;;;;;;;5053952;28;20411;-75
2022/05/05 06:34:32;;;;;;;10.67;4.37;;;;;;;;;;5053884;28;20544;-76
2022/05/05 06:36:59;;;;;;;4.73;4.53;;;;;;;;;;5054153;28;20442;-76
2022/05/05 06:39:24;;;;;;;4.50;4.23;;;;;;;;;;5053905;28;20465;-75
2022/05/05 06:41:50;;;;;;;4.07;3.87;;;;;;;;;;5053539;28;20406;-74
2022/05/05 06:44:16;;;;;;;5.50;5.27;;;;;;;;;;5054083;28;20434;-76
2022/05/05 06:46:44;;;;;;;5.03;4.63;;;;;;;;;;5053713;28;20453;-76
2022/05/05 06:49:10;;;;;;;6.10;4.43;;;;;;;;;;5053644;28;20481;-77
2022/05/05 06:51:37;;;;;;;4.20;4.00;;;;;;;;;;5053524;28;20784;-77
2022/05/05 06:54:03;;;;;;;4.23;4.03;;;;;;;;;;5053909;28;20454;-74
2022/05/05 06:56:30;;;;;;;5.13;4.83;;;;;;;;;;5053513;28;20487;-73
2022/05/05 06:58:56;;;;;;;5.43;5.03;;;;;;;;;;5053886;28;20457;-73
2022/05/05 07:06:51;;;;;;;4.60;4.40;;;;;;;;;;5053606;28;20906;-73
2022/05/05 07:12:01;;;;;;;5.10;4.70;;;;;;;;;;5053773;28;20401;-73
2022/05/05 07:14:27;;;;;;;4.60;4.20;;;;;;;;;;5053441;28;20491;-73
2022/05/05 07:16:53;;;;;;;4.90;4.60;;;;;;;;;;5052490;28;20422;-72
2022/05/05 07:19:19;;;;;;;4.40;4.20;;;;;;;;;;5053764;28;20875;-72
2022/05/05 07:21:47;;;;;;;4.30;4.10;;;;;;;;;;5053494;28;20434;-73
2022/05/05 07:24:13;;;;;;;5.20;5.00;;;;;;;;;;5053080;28;20781;-74
2022/05/05 07:26:39;;;;;;;5.20;4.90;;;;;;;;;;5052921;28;20505;-74
2022/05/05 07:29:05;;;;;;;6.00;5.47;;;;;;;;;;5053832;28;20551;-73
2022/05/05 07:31:30;;;;;;;5.17;4.90;;;;;;;;;;5053535;28;20890;-76
2022/05/05 07:33:57;;;;;;;5.67;5.40;;;;;;;;;;5052852;28;20426;-74
2022/05/05 07:36:24;;;;;;;5.17;4.70;;;;;;;;;;5053379;28;20468;-73
2022/05/05 07:38:49;;;;;;;5.40;5.17;;;;;;;;;;5053438;28;20430;-74
2022/05/05 07:41:16;;;;;;;5.90;5.50;;;;;;;;;;5052904;28;20426;-72
2022/05/05 07:43:42;;;;;;;8.20;6.93;;;;;;;;;;5053075;28;20442;-73
2022/05/05 07:46:08;;;;;;;6.40;5.80;;;;;;;;;;5053003;28;20437;-72
2022/05/05 07:48:34;;;;;;;6.10;5.80;;;;;;;;;;5052861;28;20942;-73
2022/05/05 07:51:00;;;;;;;6.83;6.33;;;;;;;;;;5052635;28;20837;-72
2022/05/05 07:53:26;;;;;;;5.10;4.80;;;;;;;;;;5052851;28;20976;-73
2022/05/05 07:55:52;;;;;;;5.70;5.40;;;;;;;;;;5052650;28;20789;-73
2022/05/05 07:58:18;;;;;;;5.97;5.67;;;;;;;;;;5051674;28;20418;-74
2022/05/05 08:00:44;;;;;;;7.40;6.80;;;;;;;;;;5052717;28;20423;-73
2022/05/05 08:03:10;;;;;;;6.13;5.73;;;;;;;;;;5052757;28;20433;-73
2022/05/05 08:05:36;;;;;;;6.80;6.30;;;;;;;;;;5053049;28;20922;-73
2022/05/05 08:08:02;;;;;;;6.03;5.70;;;;;;;;;;5053355;28;20414;-75
2022/05/05 08:10:28;;;;;;;5.50;5.20;;;;;;;;;;5052857;28;20498;-73
2022/05/05 08:12:54;;;;;;;7.13;6.73;;;;;;;;;;5052560;28;20783;-75
2022/05/05 08:15:20;;;;;;;6.60;6.20;;;;;;;;;;5052925;28;20423;-74
2022/05/05 08:17:48;;;;;;;11.23;8.47;;;;;;;;;;5052653;28;20430;-73
2022/05/05 08:20:15;;;;;;;6.47;5.77;;;;;;;;;;5053144;28;20450;-73
2022/05/05 08:22:41;;;;;;;9.00;6.17;;;;;;;;;;5052817;28;20429;-73
2022/05/05 08:30:37;;;;;;;7.90;6.20;;;;;;;;;;5052813;28;20510;-73
2022/05/05 08:33:03;;;;;;;7.00;6.00;;;;;;;;;;5052584;28;20914;-77
2022/05/05 08:35:29;;;;;;;8.10;5.70;;;;;;;;;;5052435;28;20430;-73
2022/05/05 08:37:56;;;;;;;6.00;5.53;;;;;;;;;;5052752;28;20420;-76
2022/05/05 08:40:28;;;;;;;5.73;5.23;;;;;;;;;;5052452;28;20419;-74
2022/05/05 08:42:54;;;;;;;6.57;6.07;;;;;;;;;;5052420;28;20916;-73
2022/05/05 08:45:21;;;;;;;6.63;5.83;;;;;;;;;;5054668;28;20444;-76
2022/05/05 08:47:47;;;;;;;6.37;5.93;;;;;;;;;;5056184;28;20972;-77
2022/05/05 08:50:14;;;;;;;5.20;4.90;;;;;;;;;;5055911;28;20493;-80
2022/05/05 08:52:49;;;;;;;5.47;4.97;;;;;;;;;;5055894;28;20767;-75
2022/05/05 08:55:16;;;;;;;9.13;6.00;;;;;;;;;;5054621;28;20435;-76
2022/05/05 08:57:43;;;;;;;6.33;5.73;;;;;;;;;;5055788;28;20901;-72
2022/05/05 09:00:10;;;;;;;6.30;5.47;;;;;;;;;;5055828;28;20909;-73
2022/05/05 09:02:36;;;;;;;6.97;6.20;;;;;;;;;;5056006;28;20422;-74
2022/05/05 09:05:03;;;;;;;6.90;6.30;;;;;;;;;;5056040;28;20488;-75
2022/05/05 09:07:48;;;;;;;6.80;6.17;;;;;;;;;;5055640;28;20415;-75
2022/05/05 09:10:15;;;;;;;10.47;6.57;;;;;;;;;;5055688;28;20488;-77
2022/05/05 09:12:41;;;;;;;6.17;5.77;;;;;;;;;;5055770;28;20414;-73
2022/05/05 09:15:09;;;;;;;8.80;6.67;;;;;;;;;;5055560;28;20414;-74
2022/05/05 09:17:35;;;;;;;11.37;7.60;;;;;;;;;;5055843;28;20434;-74
2022/05/05 09:20:03;;;;;;;11.90;6.40;;;;;;;;;;5056212;28;20525;-73
2022/05/05 09:22:29;;;;;;;6.53;6.13;;;;;;;;;;5055564;28;20442;-73
2022/05/05 09:24:56;;;;;;;6.80;6.20;;;;;;;;;;5055523;28;20799;-72
2022/05/05 09:27:23;;;;;;;7.25;6.65;;;;;;;;;;5054371;28;20404;-74
2022/05/05 09:30:01;;;;;;;7.80;6.30;;;;;;;;;;5055371;28;20677;-73
2022/05/05 09:32:27;;;;;;;7.60;6.70;;;;;;;;;;5055389;28;20410;-74
2022/05/05 09:34:57;;;;;;;7.60;6.73;;;;;;;;;;5055341;28;20422;-77
2022/05/05 09:37:23;;;;;;;6.93;6.33;;;;;;;;;;5055091;28;20402;-76
2022/05/05 09:39:57;;;;;;;6.90;6.27;;;;;;;;;;5055141;28;20449;-77
2022/05/05 09:42:45;;;;;;;11.37;7.30;;;;;;;;;;5055002;28;20960;-74
2022/05/05 09:45:12;;;;;;;6.53;5.90;;;;;;;;;;5055198;28;20406;-75
2022/05/05 09:47:38;;;;;;;10.00;7.63;;;;;;;;;;5055171;28;20406;-77
2022/05/05 09:50:04;;;;;;;8.73;6.70;;;;;;;;;;5054868;28;20497;-73
2022/05/05 09:58:08;;;;;;;9.83;7.17;;;;;;;;;;5054360;28;20401;-73
2022/05/05 10:00:45;;;;;;;7.67;6.97;;;;;;;;;;5054916;28;20514;-72
2022/05/05 10:06:03;;;;;;;6.20;5.60;;;;;;;;;;5054789;28;20398;-75
2022/05/05 10:08:41;;;;;;;9.20;7.77;;;;;;;;;;5054654;28;20414;-73
2022/05/05 10:11:07;;;;;;;8.67;7.70;;;;;;;;;;5054762;28;20422;-73
2022/05/05 10:13:37;;;;;;;7.63;7.03;;;;;;;;;;5054676;28;20448;-73
2022/05/05 10:16:04;;;;;;;8.80;7.80;;;;;;;;;;5054718;28;20509;-74
2022/05/05 10:18:32;;;;;;;9.70;8.20;;;;;;;;;;5054439;28;20501;-73
2022/05/05 10:20:58;;;;;;;8.63;7.83;;;;;;;;;;5054444;28;20449;-73
2022/05/05 10:23:27;;;;;;;9.47;8.10;;;;;;;;;;5054514;28;20468;-72
2022/05/05 10:25:53;;;;;;;8.43;7.80;;;;;;;;;;5054366;28;20415;-74
2022/05/05 10:28:38;;;;;;;8.10;7.27;;;;;;;;;;5054575;28;20415;-75
2022/05/05 10:31:04;;;;;;;9.57;7.40;;;;;;;;;;5054376;28;20403;-75
2022/05/05 10:33:49;;;;;;;8.20;7.60;;;;;;;;;;5053865;28;20418;-75
2022/05/05 10:36:23;;;;;;;8.50;7.70;;;;;;;;;;5053876;28;20468;-76
2022/05/05 10:38:49;;;;;;;10.70;8.40;;;;;;;;;;5053933;28;20548;-72
2022/05/05 10:41:36;;;;;;;9.40;7.80;;;;;;;;;;5054136;28;20468;-75
2022/05/05 10:44:23;;;;;;;8.53;7.70;;;;;;;;;;5053694;28;20912;-73
2022/05/05 10:46:53;;;;;;;10.73;8.00;;;;;;;;;;5053761;28;20873;-77
2022/05/05 10:49:31;;;;;;;10.80;9.07;;;;;;;;;;5053901;28;20804;-73
2022/05/05 10:52:24;;;;;;;8.50;7.67;;;;;;;;;;5053630;28;20422;-73
2022/05/05 10:54:54;;;;;;;8.40;7.70;;;;;;;;;;5052555;28;20433;-74
2022/05/05 10:57:26;;;;;;;8.70;7.90;;;;;;;;;;5052158;28;20426;-73
2022/05/05 11:00:11;;;;;;;9.93;8.40;;;;;;;;;;5053609;28;20426;-74
2022/05/05 11:02:38;;;;;;;9.30;8.30;;;;;;;;;;5053644;28;20572;-74
2022/05/05 11:05:23;;;;;;;8.43;7.73;;;;;;;;;;5053995;28;20793;-73
2022/05/05 11:07:49;;;;;;;10.87;6.97;;;;;;;;;;5053370;28;20430;-76
2022/05/05 11:10:34;;;;;;;9.20;8.13;;;;;;;;;;5053524;28;20478;-73
2022/05/05 11:13:00;;;;;;;10.53;8.70;;;;;;;;;;5053777;28;20410;-73
2022/05/05 11:21:33;;;;;;;7.40;6.80;;;;;;;;;;5053834;28;20789;-76
2022/05/05 11:24:00;;;;;;;11.50;9.50;;;;;;;;;;5053496;28;20474;-73
2022/05/05 11:26:26;;;;;;;12.50;9.60;;;;;;;;;;5051741;28;20449;-74
2022/05/05 11:28:53;;;;;;;8.50;7.70;;;;;;;;;;5053269;28;20577;-75
2022/05/05 11:31:23;;;;;;;9.63;8.83;;;;;;;;;;5053354;28;20419;-72
2022/05/05 11:33:50;;;;;;;10.83;8.93;;;;;;;;;;5052930;28;20509;-72
2022/05/05 11:36:16;;;;;;;14.20;8.60;;;;;;;;;;5053326;28;20425;-75
2022/05/05 11:38:43;;;;;;;8.97;8.20;;;;;;;;;;5053247;28;20423;-74
2022/05/05 11:41:09;;;;;;;9.68;8.77;;;;;;;;;;5051716;28;20408;-73
2022/05/05 11:46:20;;;;;;;8.53;7.90;;;;;;;;;;5053247;28;20421;-75
2022/05/05 11:48:55;;;;;;;11.37;10.17;;;;;;;;;;5053122;28;20736;-72
2022/05/05 11:51:26;;;;;;;9.83;8.80;;;;;;;;;;5052844;28;20556;-72
2022/05/05 11:54:04;;;;;;;11.10;9.00;;;;;;;;;;5052732;28;20407;-72
2022/05/05 11:56:30;;;;;;;11.77;8.13;;;;;;;;;;5052766;28;20951;-72
2022/05/05 12:01:54;;;;;;;6.50;5.97;;;;;;;;;;5053122;28;20482;-75
2022/05/05 12:04:20;;;;;;;9.03;7.53;;;;;;;;;;5053038;28;20415;-71
2022/05/05 12:06:46;;;;;;;9.40;8.53;;;;;;;;;;5052995;28;20418;-71
2022/05/05 12:09:13;;;;;;;9.43;8.27;;;;;;;;;;5052827;28;20462;-72
2022/05/05 12:11:39;;;;;;;8.25;7.45;;;;;;;;;;5052182;28;20418;-75
2022/05/05 12:14:07;;;;;;;7.30;6.70;;;;;;;;;;5052934;28;20527;-71
2022/05/05 12:16:40;;;;;;;8.27;7.63;;;;;;;;;;5051421;28;21037;-71
2022/05/05 12:19:13;;;;;;;9.30;8.43;;;;;;;;;;5053280;28;20457;-73
2022/05/05 12:22:00;;;;;;;7.57;7.00;;;;;;;;;;5056849;28;20440;-72
2022/05/05 12:24:27;;;;;;;8.03;7.43;;;;;;;;;;5056392;28;20830;-71
2022/05/05 12:27:07;;;;;;;9.03;8.13;;;;;;;;;;5057008;28;20418;-71
2022/05/05 12:29:43;;;;;;;9.83;7.73;;;;;;;;;;5056302;28;20477;-74
2022/05/05 12:32:13;;;;;;;11.73;8.30;;;;;;;;;;5056486;28;20409;-74
2022/05/05 12:34:39;;;;;;;13.80;9.50;;;;;;;;;;5056284;28;20417;-74
2022/05/05 12:37:24;;;;;;;12.17;8.27;;;;;;;;;;5056306;28;20456;-75
2022/05/05 12:39:51;;;;;;;16.10;8.63;;;;;;;;;;5056404;28;20398;-73
2022/05/05 12:42:17;;;;;;;20.63;9.03;;;;;;;;;;5056153;28;20411;-71
2022/05/05 12:44:47;;;;;;;10.30;8.33;;;;;;;;;;5057136;28;20421;-71
2022/05/05 12:47:13;;;;;;;10.23;9.33;;;;;;;;;;5056064;28;20472;-72
2022/05/05 12:49:40;;;;;;;11.43;8.90;;;;;;;;;;5055763;28;20509;-73
2022/05/05 13:00:21;;;;;;;9.87;8.57;;;;;;;;;;5055743;28;20766;-72
2022/05/05 13:02:47;;;;;;;9.73;8.50;;;;;;;;;;5056031;28;20914;-71
2022/05/05 13:05:13;;;;;;;8.80;8.10;;;;;;;;;;5055622;28;20418;-73
2022/05/05 13:07:39;;;;;;;12.03;9.27;;;;;;;;;;5055649;28;20544;-73
2022/05/05 13:10:05;;;;;;;10.47;8.60;;;;;;;;;;5055749;28;20490;-72
2022/05/05 13:12:31;;;;;;;10.80;8.50;;;;;;;;;;5055990;28;20417;-72
2022/05/05 13:14:57;;;;;;;14.13;9.67;;;;;;;;;;5055823;28;20505;-72
2022/05/05 13:17:23;;;;;;;10.50;9.40;;;;;;;;;;5056022;28;20878;-73
2022/05/05 13:19:49;;;;;;;9.83;8.93;;;;;;;;;;5055601;28;20473;-73
2022/05/05 13:22:15;;;;;;;14.80;9.87;;;;;;;;;;5055378;28;20410;-77
2022/05/05 13:24:41;;;;;;;17.17;9.30;;;;;;;;;;5055255;28;20422;-73
2022/05/05 13:27:07;;;;;;;23.83;9.47;;;;;;;;;;5055325;28;20462;-73
2022/05/05 13:29:33;;;;;;;10.00;9.00;;;;;;;;;;5055117;28;20954;-73
2022/05/05 13:31:59;;;;;;;11.00;9.70;;;;;;;;;;5055341;28;20429;-72
2022/05/05 13:34:25;;;;;;;11.23;9.87;;;;;;;;;;5055215;28;20421;-77
2022/05/05 13:36:51;;;;;;;10.37;9.47;;;;;;;;;;5055365;28;20490;-71
2022/05/05 13:39:17;;;;;;;10.33;9.27;;;;;;;;;;5055432;28;20454;-73
2022/05/05 13:41:44;;;;;;;10.73;9.37;;;;;;;;;;5055249;28;20422;-72
2022/05/05 13:44:10;;;;;;;11.07;9.40;;;;;;;;;;5055055;28;20419;-74
2022/05/05 13:46:37;;;;;;;11.57;10.10;;;;;;;;;;5055012;28;20419;-73
2022/05/05 13:49:04;;;;;;;14.77;10.80;;;;;;;;;;5054822;28;20497;-75
2022/05/05 13:51:30;;;;;;;14.47;12.97;;;;;;;;;;5054827;28;20482;-73
2022/05/05 13:53:57;;;;;;;13.33;11.73;;;;;;;;;;5055282;28;20501;-74
2022/05/05 13:56:23;;;;;;;13.47;9.90;;;;;;;;;;5053499;28;20430;-75
2022/05/05 13:58:49;;;;;;;14.77;10.40;;;;;;;;;;5055261;28;20948;-75
2022/05/05 14:01:15;;;;;;;12.10;10.90;;;;;;;;;;5055470;28;20419;-74
2022/05/05 14:03:41;;;;;;;13.33;12.07;;;;;;;;;;5054663;28;20419;-74
2022/05/05 14:06:08;;;;;;;10.57;9.47;;;;;;;;;;5053361;28;20429;-76
2022/05/05 14:14:03;;;;;;;12.93;11.17;;;;;;;;;;5054839;28;20398;-72
2022/05/05 14:16:29;;;;;;;14.63;11.40;;;;;;;;;;5054361;28;20419;-73
2022/05/05 14:18:55;;;;;;;14.60;10.87;;;;;;;;;;5054505;28;20419;-72
2022/05/05 14:21:21;;;;;;;17.80;12.80;;;;;;;;;;5054203;28;20425;-72
2022/05/05 14:23:48;;;;;;;15.63;13.00;;;;;;;;;;5054453;28;20423;-72
2022/05/05 14:26:14;;;;;;;12.67;11.37;;;;;;;;;;5054436;28;20428;-73
2022/05/05 14:28:40;;;;;;;13.10;11.53;;;;;;;;;;5053918;28;20514;-72
2022/05/05 14:31:06;;;;;;;12.03;10.80;;;;;;;;;;5054101;28;20430;-73
2022/05/05 14:33:33;;;;;;;13.10;11.70;;;;;;;;;;5054055;28;20415;-73
2022/05/05 14:35:59;;;;;;;12.40;11.07;;;;;;;;;;5054298;28;20422;-74
2022/05/05 14:38:24;;;;;;;9.90;8.90;;;;;;;;;;5054363;28;20468;-73
2022/05/05 14:40:50;;;;;;;12.97;11.60;;;;;;;;;;5053893;28;20484;-73
2022/05/05 14:43:16;;;;;;;18.40;10.00;;;;;;;;;;5053446;28;20436;-73
2022/05/05 14:45:42;;;;;;;20.80;11.53;;;;;;;;;;5053764;28;20418;-74
2022/05/05 14:48:09;;;;;;;19.70;11.83;;;;;;;;;;5053775;28;20843;-72
2022/05/05 14:50:35;;;;;;;15.13;11.90;;;;;;;;;;5053773;28;20490;-72
2022/05/05 14:53:01;;;;;;;13.27;11.93;;;;;;;;;;5053966;28;20503;-73
2022/05/05 14:55:27;;;;;;;19.63;12.53;;;;;;;;;;5053847;28;20450;-74
2022/05/05 14:57:53;;;;;;;20.40;14.57;;;;;;;;;;5053819;28;20810;-74
2022/05/05 15:00:19;;;;;;;14.03;12.37;;;;;;;;;;5053485;28;20415;-72
2022/05/05 15:02:45;;;;;;;20.33;13.40;;;;;;;;;;5053345;28;20442;-74
2022/05/05 15:05:14;;;;;;;14.03;12.63;;;;;;;;;;5052176;28;20430;-73
2022/05/05 15:07:41;;;;;;;15.53;12.97;;;;;;;;;;5053672;28;20517;-74
2022/05/05 15:10:07;;;;;;;14.63;12.30;;;;;;;;;;5053381;28;20473;-72
2022/05/05 15:12:33;;;;;;;15.87;13.93;;;;;;;;;;5053587;28;20414;-72
2022/05/05 15:14:59;;;;;;;17.37;14.37;;;;;;;;;;5053579;28;20419;-72
2022/05/05 15:17:25;;;;;;;18.03;10.93;;;;;;;;;;5053170;28;20460;-73
2022/05/05 15:19:51;;;;;;;13.43;12.00;;;;;;;;;;5053998;28;20422;-75
2022/05/05 15:22:17;;;;;;;16.30;13.00;;;;;;;;;;5053367;28;20418;-74
2022/05/05 15:25:02;;;;;;;16.20;10.40;;;;;;;;;;5053118;28;20858;-72
2022/05/05 15:27:29;;;;;;;20.07;12.77;;;;;;;;;;5053366;28;20402;-73
2022/05/05 15:29:55;;;;;;;14.07;11.27;;;;;;;;;;5054011;28;20478;-72
2022/05/05 15:32:24;;;;;;;14.80;12.50;;;;;;;;;;5053260;28;20454;-73
2022/05/05 15:34:50;;;;;;;21.80;14.10;;;;;;;;;;5053334;28;20476;-73
2022/05/05 15:37:16;;;;;;;12.40;11.10;;;;;;;;;;5053224;28;20513;-73
2022/05/05 15:39:41;;;;;;;15.37;12.87;;;;;;;;;;5053212;28;20513;-72
2022/05/05 15:42:08;;;;;;;15.17;12.47;;;;;;;;;;5052866;28;20418;-73
2022/05/05 15:44:34;;;;;;;14.37;12.57;;;;;;;;;;5053285;28;20426;-73